Terminal Aerodrome Forecast
Issued by NWS

Home | Current Version | Previous Version | Graphics & Text | Print | Product List | Glossary On
Versions: 1 2 3 4 5 6 7 8 9 10 11 12 13 14 15 16 17 18 19 20 21 22 23 24 25 26 27 28 29 30 31 32 33 34 35
000
FTUS43 KLOT 172100 AAC
TAFMDW
TAF AMD
KMDW 172152Z 1722/1818 03010KT P6SM BKN017
      TEMPO 1722/1801 SCT017
     FM180300 03006KT 6SM BR SCT006 OVC008
     FM180800 04003KT 3SM BR SCT003 OVC005
     FM181500 05005KT P6SM SCT015 BKN020=

USA.gov is the U.S. government's official web portal to all federal, state and local government web resources and services.